x

Sentry Shoal (46131) Wave Buoy

4:00 - Fri 24th Mar 2017 All times are PDT. -7 hours from GMT.

  • Sig Wave height 6.2ft
  • Peak Period 6s
  • Wind
    27mph, 34mph gusts
  • Sea Temp 46°f
  • Aire Temp 46°f
  • Sea Pressure 1005.1mb
  • Sentry Shoal
  • Sentry Shoal

More Historic Weather Station data

Upgrade to MSW Pro to gain access to the past 30 days of data for over 8000 Wavebouys and Weather Stations around the globe.

Join Pro

Comparision Forecast

View Surf forecast
   
vie 03/24 4:00 6ft 6s 27 34 mph 1005.1mb 46f 46f
3:00 6ft 6s 31 38 mph 1005.4mb 46f 46f
2:00 7ft 6s 31 38 mph 1006.2mb 46f 47f
1:00 6ft 5s 27 34 mph 1006.4mb 46f 47f
12:00 5ft 5s 22 31 mph 1006.8mb 46f 47f
jue 03/23 11:00 4.5ft 5s 22 27 mph 1007.3mb 46f 46f
10:00 4.5ft 5s 25 31 mph 1007.7mb 46f 46f
9:00  -   -  20
mph
1008.6mb - 46f
8:00 4.5ft 5s 20 22 mph 1009.5mb 46f 46f
7:00 5.5ft 5s 22 27 mph 1009.9mb 46f 47f
6:00 5.5ft 5s 29 38 mph 1010.2mb 46f 47f
5:00 5ft 6s 27 38 mph 1011.1mb 46f 48f
4:00 6.5ft 6s 27 31 mph 1011.6mb 46f 48f
3:00 7ft 6s 29 36 mph 1012mb 46f 47f
2:00 6ft 5s 25 31 mph 1012.6mb 46f 46f
1:00 5.5ft 5s 25 29 mph 1013.2mb 46f 46f
12:00 5.5ft 5s 25 31 mph 1013.8mb 46f 46f
11:00 4.5ft 4s 22 29 mph 1014.2mb 46f 46f
10:00 3.5ft 4s 25 31 mph 1014.2mb 46f 45f
9:00 2.5ft 4s 16 20 mph 1014.5mb 46f 44f
8:00 2.5ft 4s 18 22 mph 1014.7mb 46f 45f
7:00 2ft 4s 18 20 mph 1014.6mb 46f 45f
6:00 2ft 4s 13 18 mph 1014.8mb 46f 44f
5:00 2.5ft 4s 13 16 mph 1014.7mb 46f 44f
4:00 3ft 4s 16 18 mph 1014.5mb 46f 44f
3:00 3.5ft 4s 20 22 mph 1014.3mb 46f 44f
2:00 3.5ft 4s 22 27 mph 1013.5mb 46f 45f
1:00 3.5ft 5s 20 25 mph 1013.6mb 46f 44f
12:00 3.5ft 5s 20 25 mph 1013mb 46f 45f
mié 03/22 11:00 3.5ft 4s 20 25 mph 1012.2mb 46f 45f
10:00 2.5ft 4s 20 25 mph 1011.7mb 46f 46f
8:00 2.5ft 4s 20 25 mph 1010mb 46f 47f
7:00 3ft 5s 20 25 mph 1008.8mb 46f 48f
6:00 3.5ft 5s 18 22 mph 1007.6mb 46f 50f
5:00 4ft 4s 25 29 mph 1006.6mb 46f 48f
4:00 3.5ft 4s 22 29 mph 1006.1mb 46f 48f
3:00 3.5ft 4s 25 31 mph 1005.7mb 46f 48f
2:00 3.5ft 4s 22 29 mph 1005.3mb 46f 48f
1:00 4ft 5s 22 29 mph 1004.8mb 46f 48f
12:00 4ft 5s 22 27 mph 1004.6mb 46f 48f
11:00 3.5ft 4s 20 27 mph 1004.2mb 46f 48f
10:00 3.5ft 4s 25 29 mph 1003.6mb 46f 47f
9:00 3ft 4s 22 27 mph 1003mb 46f 47f
8:00 3.5ft 4s 18 20 mph 1002.8mb 46f 47f
7:00 3ft 5s 20 25 mph 1002.7mb 46f 47f
6:00 2.5ft 4s 11
mph
1003mb 46f 47f
5:00 2.5ft 4s 13
mph
1002.8mb 46f 47f
4:00 3.5ft 4s 20 25 mph 1002.8mb 46f 48f
3:00 3ft 4s 20 22 mph 1003.1mb 46f 47f
2:00 2ft 4s 25 31 mph 1003.1mb 46f 48f
1:00 1.6ft 4s 16 18 mph 1003.5mb 46f 47f
12:00 2ft 4s 13 16 mph 1003.7mb 46f 48f
mar 03/21 11:00 2.5ft 4s 16 18 mph 1004.1mb 46f 48f
10:00 2.5ft 4s 11 16 mph 1004.3mb 46f 48f
9:00 3.5ft 5s 16 18 mph 1004.4mb 46f 48f
8:00 2ft 3s 18 22 mph 1004.1mb 46f 48f
7:00 0.3ft 2s 16 20 mph 1004.1mb 46f 48f
6:00 0.3ft 4s 4 7 mph 1004.1mb 46f 45f
5:00 0.3ft 2s 4
mph
1004.4mb 46f 44f
4:00 0.3ft 2s 4
mph
1004.6mb 46f 44f
3:00 0.3ft 4s 4 7 mph 1004.7mb 46f 43f
2:00 0.3ft 2s 9
mph
1005mb 46f 43f
1:00 0.3ft 2s 7 9 mph 1005.6mb 46f 42f
12:00 0.3ft 4s 7
mph
1006.1mb 46f 42f
11:00 0.3ft 4s 7
mph
1006.5mb 46f 42f
10:00 0.3ft 4s 7 9 mph 1006.7mb 46f 42f
9:00 0.3ft 4s 4
mph
1006.8mb 46f 42f
8:00 0.3ft 4s 4
mph
1007mb 46f 43f
7:00 0.3ft 2s 4
mph
1007.4mb 46f 42f
6:00 0.3ft 2s 4 7 mph 1007.3mb 46f 43f
5:00 0.3ft 2s 9
mph
1007.3mb 46f 44f
4:00 0.3ft 2s 7
mph
1007.9mb 46f 45f
3:00 0.3ft 4s 7 9 mph 1009mb 46f 45f
2:00 0.3ft 4s 9
mph
1010mb 46f 45f
1:00 0.3ft 2s 7
mph
1010.8mb 46f 45f
12:00 0.3ft 4s 9
mph
1011.5mb 46f 46f
lun 03/20 11:00 0.3ft 2s 9 11 mph 1012.4mb 47f 46f
10:00 0.3ft 4s 9 11 mph 1012.7mb 47f 45f
9:00 0.3ft 2s 4
mph
1012.9mb 46f 45f
8:00 0.3ft 4s 2 4 mph 1013.1mb 46f 45f
7:00 0.3ft 4s  -  2 mph 1013.1mb 47f 45f
6:00 0.3ft 4s 2
mph
1013.6mb 47f 45f
5:00 0.3ft 4s 2
mph
1014.4mb 48f 44f
4:00 0.3ft 4s  -  2 mph 1015.3mb 48f 44f
3:00 0.3ft 4s 2
mph
1016.2mb 48f 44f
2:00 0.3ft 5s  -  2 mph 1017.2mb 48f 43f
1:00 0.3ft 2s  -  2 mph 1018.2mb 47f 42f